createdAt,value
2023-06-29T00:04:42.758Z,63.81
2023-06-29T00:09:46.104Z,63.36
2023-06-29T00:14:48.888Z,61.37
2023-06-29T00:19:51.768Z,59.75
2023-06-29T00:25:00.214Z,59.38
2023-06-29T00:30:03.132Z,65.29
2023-06-29T00:35:06.389Z,62.51
2023-06-29T00:40:10.877Z,61.38
2023-06-29T00:45:14.700Z,60.86
2023-06-29T00:50:18.379Z,60.17
2023-06-29T00:55:21.742Z,59.29
2023-06-29T01:00:25.175Z,63.53
2023-06-29T01:05:34.358Z,62.83
2023-06-29T01:10:37.596Z,61.20
2023-06-29T01:15:42.225Z,59.80
2023-06-29T01:20:50.038Z,60.96
2023-06-29T01:25:56.001Z,65.18
2023-06-29T01:30:59.742Z,64.51
2023-06-29T01:36:12.304Z,61.21
2023-06-29T01:41:18.041Z,60.69
2023-06-29T01:46:22.678Z,59.15
2023-06-29T01:51:25.668Z,61.09
2023-06-29T01:56:28.635Z,65.59
2023-06-29T02:01:31.790Z,62.92
2023-06-29T02:06:34.715Z,62.06
2023-06-29T02:11:37.484Z,60.74
2023-06-29T02:16:40.314Z,59.54
2023-06-29T02:21:43.112Z,64.03
2023-06-29T02:26:45.916Z,62.76
2023-06-29T02:31:49.392Z,60.79
2023-06-29T02:36:52.218Z,60.74
2023-06-29T02:41:54.974Z,59.78
2023-06-29T02:46:57.707Z,63.56
2023-06-29T02:52:00.921Z,62.98
2023-06-29T02:57:04.047Z,61.32
2023-06-29T03:02:07.213Z,60.33
2023-06-29T03:07:10.288Z,60.08
2023-06-29T03:12:13.529Z,59.07
2023-06-29T03:17:16.467Z,64.09
2023-06-29T03:22:19.309Z,62.82
2023-06-29T03:27:22.039Z,61.87
2023-06-29T03:32:24.862Z,59.10
2023-06-29T03:37:27.617Z,61.22
2023-06-29T03:42:30.376Z,64.29
2023-06-29T03:47:33.135Z,61.85
2023-06-29T03:52:35.950Z,60.25
2023-06-29T03:57:38.920Z,59.51
2023-06-29T04:02:41.895Z,64.22
2023-06-29T04:07:45.042Z,63.91
2023-06-29T04:12:47.964Z,61.31
2023-06-29T04:17:51.302Z,59.03
2023-06-29T04:22:54.193Z,61.24
2023-06-29T04:27:57.396Z,66.59
2023-06-29T04:33:10.969Z,63.10
2023-06-29T04:38:14.614Z,60.59
2023-06-29T04:43:17.521Z,58.11
2023-06-29T04:48:20.797Z,61.86
2023-06-29T04:53:23.517Z,62.83
2023-06-29T04:58:26.856Z,59.32
2023-06-29T05:03:29.728Z,59.59
2023-06-29T05:08:32.668Z,63.66
2023-06-29T05:13:37.365Z,60.93
2023-06-29T05:18:40.852Z,58.32
2023-06-29T05:23:44.331Z,61.40
2023-06-29T05:29:00.488Z,63.53
2023-06-29T05:34:08.276Z,59.16
2023-06-29T05:39:11.659Z,59.22
2023-06-29T05:44:14.494Z,61.74
2023-06-29T05:49:18.177Z,63.73
2023-06-29T05:54:20.958Z,59.91
2023-06-29T05:59:24.106Z,57.49
2023-06-29T06:04:27.218Z,60.55
2023-06-29T06:09:30.390Z,61.91
2023-06-29T06:14:33.790Z,63.24
2023-06-29T06:19:36.586Z,58.87
2023-06-29T06:24:39.525Z,60.78
2023-06-29T06:29:42.431Z,61.76
2023-06-29T06:34:47.308Z,60.20
2023-06-29T06:39:50.310Z,59.94
2023-06-29T06:44:54.534Z,57.99
2023-06-29T06:49:57.355Z,57.06
2023-06-29T06:55:00.540Z,56.40
2023-06-29T07:00:04.700Z,55.35
2023-06-29T07:05:08.067Z,54.77
2023-06-29T07:10:11.114Z,51.48
2023-06-29T07:15:13.927Z,51.28
2023-06-29T07:25:22.571Z,49.86
2023-06-29T07:30:25.719Z,47.45
2023-06-29T07:35:28.577Z,47.18
2023-06-29T07:40:31.540Z,46.30
2023-06-29T07:45:34.403Z,45.25
2023-06-29T07:50:37.511Z,43.50
2023-06-29T07:55:40.616Z,43.69
2023-06-29T08:00:43.458Z,42.27
2023-06-29T08:10:52.285Z,39.61
2023-06-29T08:15:55.707Z,39.19
2023-06-29T08:20:58.529Z,39.02
2023-06-29T08:26:01.418Z,37.61
2023-06-29T08:31:06.509Z,37.21
2023-06-29T08:36:10.331Z,35.66
2023-06-29T08:41:15.141Z,35.03
2023-06-29T08:46:18.110Z,34.85
2023-06-29T08:51:23.352Z,34.88
2023-06-29T08:56:26.811Z,32.99
2023-06-29T09:01:31.065Z,32.90
2023-06-29T09:06:34.113Z,31.37
2023-06-29T09:11:37.371Z,31.07
2023-06-29T09:16:54.090Z,32.26
2023-06-29T09:21:58.615Z,32.79
2023-06-29T09:27:02.791Z,32.72
2023-06-29T09:32:06.334Z,33.40
2023-06-29T09:37:14.493Z,33.09
2023-06-29T09:42:17.456Z,32.14
2023-06-29T09:52:46.299Z,33.79
2023-06-29T09:57:51.386Z,33.59
2023-06-29T10:02:55.443Z,33.16
2023-06-29T10:07:59.235Z,34.10
2023-06-29T10:13:06.062Z,35.52
2023-06-29T10:18:13.225Z,35.79
2023-06-29T10:23:18.993Z,33.50
2023-06-29T10:28:23.048Z,32.59
2023-06-29T10:33:25.800Z,30.43
2023-06-29T10:38:33.686Z,31.73
2023-06-29T10:43:59.712Z,34.19
2023-06-29T10:49:02.583Z,34.21
2023-06-29T10:54:05.431Z,32.50
2023-06-29T10:59:09.601Z,30.34
2023-06-29T11:04:13.212Z,30.54
2023-06-29T11:09:16.243Z,30.38
2023-06-29T11:14:20.208Z,30.02
2023-06-29T11:19:28.672Z,28.80
2023-06-29T11:24:31.708Z,28.76
2023-06-29T11:29:34.591Z,27.89
2023-06-29T11:34:37.371Z,26.31
2023-06-29T11:39:40.090Z,24.78
2023-06-29T11:44:42.879Z,24.12
2023-06-29T11:49:50.624Z,24.74
2023-06-29T11:54:54.291Z,25.46
2023-06-29T11:59:57.080Z,25.41
2023-06-29T12:05:03.041Z,25.42
2023-06-29T12:10:11.436Z,25.48
2023-06-29T12:15:22.716Z,25.74
2023-06-29T12:20:26.303Z,25.31
2023-06-29T12:25:29.191Z,23.19
2023-06-29T12:30:31.934Z,22.72
2023-06-29T12:35:34.690Z,22.69
2023-06-29T12:40:39.392Z,23.32
2023-06-29T12:45:42.288Z,23.03
2023-06-29T12:50:45.878Z,22.47
2023-06-29T12:55:49.144Z,21.94
2023-06-29T13:00:53.144Z,22.77
2023-06-29T13:05:56.325Z,23.76
2023-06-29T13:10:59.736Z,23.89
2023-06-29T13:16:02.811Z,24.65
2023-06-29T13:21:05.628Z,24.15
2023-06-29T13:26:08.382Z,23.90
2023-06-29T13:31:11.388Z,23.73
2023-06-29T13:36:14.360Z,22.68
2023-06-29T13:41:19.954Z,22.45
2023-06-29T13:46:22.686Z,23.56
2023-06-29T13:51:25.819Z,24.14
2023-06-29T13:56:30.156Z,22.96
2023-06-29T14:01:33.456Z,22.40
2023-06-29T14:06:39.850Z,22.42
2023-06-29T14:11:42.844Z,22.42
2023-06-29T14:16:46.662Z,22.52
2023-06-29T14:21:49.463Z,22.76
2023-06-29T14:26:54.395Z,23.34
2023-06-29T14:31:57.272Z,24.07
2023-06-29T14:37:00.216Z,24.82
2023-06-29T14:42:03.005Z,25.54
2023-06-29T14:47:06.392Z,26.89
2023-06-29T14:52:09.179Z,28.70
2023-06-29T14:57:12.261Z,30.67
2023-06-29T15:02:15.559Z,32.05
2023-06-29T15:07:18.356Z,32.83
2023-06-29T15:12:22.373Z,33.35
2023-06-29T15:17:26.463Z,33.74
2023-06-29T15:22:29.237Z,34.60
2023-06-29T15:27:32.051Z,35.12
2023-06-29T15:32:34.833Z,35.72
2023-06-29T15:37:37.751Z,35.79
2023-06-29T15:42:40.516Z,35.71
2023-06-29T15:47:43.432Z,35.76
2023-06-29T15:52:46.392Z,36.31
2023-06-29T15:57:49.748Z,36.81
2023-06-29T16:02:52.495Z,37.30
2023-06-29T16:07:58.344Z,37.58
2023-06-29T16:13:01.122Z,37.94
2023-06-29T16:18:04.299Z,38.23
2023-06-29T16:23:07.242Z,38.41
2023-06-29T16:28:10.065Z,38.80
2023-06-29T16:33:12.844Z,38.92
2023-06-29T16:38:15.794Z,39.01
2023-06-29T16:43:18.683Z,39.38
2023-06-29T16:48:21.873Z,39.67
2023-06-29T16:53:24.608Z,39.93
2023-06-29T16:58:28.774Z,40.21
2023-06-29T17:03:32.370Z,40.19
2023-06-29T17:08:35.454Z,40.38
2023-06-29T17:13:38.169Z,40.73
2023-06-29T17:18:40.999Z,40.96
2023-06-29T17:23:43.867Z,40.78
2023-06-29T17:28:46.619Z,41.13
2023-06-29T17:33:55.062Z,41.54
2023-06-29T17:38:58.657Z,41.56
2023-06-29T17:44:01.437Z,41.94
2023-06-29T17:49:04.182Z,42.08
2023-06-29T17:54:06.931Z,42.10
2023-06-29T17:59:09.728Z,42.36
2023-06-29T18:04:13.321Z,42.48
2023-06-29T18:09:16.472Z,42.50
2023-06-29T18:14:19.257Z,43.46
2023-06-29T18:19:22.015Z,43.29
2023-06-29T18:24:24.768Z,43.47
2023-06-29T18:29:30.317Z,44.15
2023-06-29T18:34:33.230Z,44.81
2023-06-29T18:39:35.973Z,44.73
2023-06-29T18:44:39.173Z,45.22
2023-06-29T18:49:52.233Z,45.38
2023-06-29T18:54:57.278Z,45.61
2023-06-29T19:00:00.725Z,46.89
2023-06-29T19:05:04.221Z,47.97
2023-06-29T19:10:07.777Z,47.79
2023-06-29T19:15:11.108Z,47.35
2023-06-29T19:20:13.894Z,48.75
2023-06-29T19:25:16.765Z,49.12
2023-06-29T19:30:19.510Z,50.32
2023-06-29T19:35:22.364Z,50.05
2023-06-29T19:40:25.487Z,50.12
2023-06-29T19:45:28.377Z,51.31
2023-06-29T19:50:31.339Z,52.38
2023-06-29T19:55:35.888Z,52.17
2023-06-29T20:00:38.732Z,53.63
2023-06-29T20:05:42.965Z,52.76
2023-06-29T20:10:48.556Z,52.22
2023-06-29T20:15:51.496Z,53.49
2023-06-29T20:20:54.505Z,54.76
2023-06-29T20:25:57.251Z,54.06
2023-06-29T20:31:00.059Z,55.13
2023-06-29T20:36:03.487Z,55.67
2023-06-29T20:41:06.246Z,57.06
2023-06-29T20:46:09.025Z,56.73
2023-06-29T20:51:16.943Z,57.07
2023-06-29T20:56:20.935Z,58.97
2023-06-29T21:01:25.016Z,59.96
2023-06-29T21:06:28.150Z,59.25
2023-06-29T21:11:32.412Z,57.75
2023-06-29T21:16:35.658Z,58.48
2023-06-29T21:21:38.958Z,57.97
2023-06-29T21:26:41.762Z,57.89
2023-06-29T21:31:45.389Z,58.95
2023-06-29T21:36:48.941Z,60.54
2023-06-29T21:41:51.769Z,59.63
2023-06-29T21:46:54.661Z,65.68
2023-06-29T21:51:57.637Z,67.72
2023-06-29T21:57:00.395Z,61.70
2023-06-29T22:02:03.232Z,55.83
2023-06-29T22:12:14.733Z,54.69
2023-06-29T22:17:17.625Z,56.68
2023-06-29T22:22:20.354Z,56.69
2023-06-29T22:27:23.107Z,59.68
2023-06-29T22:32:26.323Z,67.89
2023-06-29T22:37:29.279Z,67.11
2023-06-29T22:42:32.030Z,64.45
2023-06-29T22:47:34.796Z,59.97
2023-06-29T22:52:37.682Z,55.59
2023-06-29T22:57:40.852Z,57.03
2023-06-29T23:02:43.798Z,56.63
2023-06-29T23:07:47.739Z,58.72
2023-06-29T23:12:50.508Z,58.64
2023-06-29T23:17:54.940Z,58.55
2023-06-29T23:22:58.951Z,59.85
2023-06-29T23:28:04.489Z,66.67
2023-06-29T23:33:09.752Z,68.66
2023-06-29T23:38:12.824Z,64.41
2023-06-29T23:43:15.698Z,61.50
2023-06-29T23:48:18.508Z,57.61
2023-06-29T23:53:21.509Z,55.91
2023-06-29T23:58:24.485Z,59.83
